Terminal Aerodrome Forecast
Issued by NWS Shreveport, LA

Home | Current Version | Previous Version | Text Only | Print | Product List | Glossary On
Versions: 1 2 3 4 5 6 7 8 9 10 11 12
000
FTUS44 KSHV 031745
TAFMLU
TAF
KMLU 031745Z 0318/0418 VRB06KT P6SM SCT070 SCT130
      TEMPO 0318/0322 BKN070 BKN130
     FM032200 10007KT P6SM SCT070 BKN100
     FM040000 VRB04KT P6SM BKN100
     FM041500 23007KT P6SM BKN070 BKN250=

USA.gov is the U.S. government's official web portal to all federal, state and local government web resources and services.